Weather observations for the past three days for
Wall Blake Airport
Imperial (Metric)
Date Time (ast) Wind (mph) Vis. (mi.) Weather Sky Cond. Temperature (ºF) Relative Humidity Wind Chill (°F) Heat Index (°F) Pressure Precipitation (in)
Air Dwpt 6 hour altimeter (in) sea level (mb) 1 hr 3 hr 6 hr
Max. Min.
07 17:00 E 12 0.00 Partly Cloudy SCT020 82.4 69.8 66% 86 0 0.0
07 16:00 E 12 0.00 Partly Cloudy SCT020 82.4 71.6 70% 87 0 0.0
07 15:00 E 13 0.00 Partly Cloudy SCT019 84.2 71.6 66% 90 0 0.0
07 14:00 E 13 0.00 Partly Cloudy SCT019 84.2 73.4 70% 91 0 0.0
07 13:00 SE 13 0.00 Partly Cloudy SCT019 82.4 73.4 74% 88 0 0.0
07 11:00 E 13 0.00 Partly Cloudy SCT020 84.2 71.6 66% 90 0 0.0
07 10:00 E 13 0.00 Partly Cloudy SCT020 82.4 73.4 74% 88 0 0.0
07 09:00 E 14 0.00 Partly Cloudy SCT020 82.4 73.4 74% 88 0 0.0
07 08:00 E 10 0.00 Partly Cloudy SCT020 80.6 73.4 79% 85 0 0.0
07 07:00 E 10 0.00 Partly Cloudy SCT019 80.6 71.6 74% 85 0 0.0
06 19:00 E 10 0.00 A Few Clouds FEW019 80.6 73.4 79% 85 0 0.0
06 18:00 E 12 0.00 A Few Clouds FEW019 80.6 71.6 74% 85 0 0.0
06 17:00 E 14 0.00 Partly Cloudy SCT020 82.4 73.4 74% 88 0 0.0
06 16:00 E 14 0.00 Partly Cloudy SCT020 82.4 71.6 70% 87 0 0.0
06 15:00 E 13 0.00 Partly Cloudy SCT020 84.2 73.4 70% 91 0 0.0
06 14:00 E 14 0.00 Partly Cloudy SCT019 84.2 71.6 66% 90 0 0.0
06 13:00 E 13 0.00 Partly Cloudy SCT019 84.2 73.4 70% 91 0 0.0
06 12:00 E 14 0.00 Partly Cloudy SCT020 84.2 73.4 70% 91 0 0.0
06 11:00 E 13 0.00 Partly Cloudy SCT020 84.2 73.4 70% 91 0 0.0
06 10:00 E 14 0.00 Partly Cloudy SCT020 84.2 71.6 66% 90 0 0.0
06 09:00 E 15 0.00 Partly Cloudy SCT019 82.4 73.4 74% 88 0 0.0
06 08:00 E 13 0.00 Partly Cloudy SCT019 80.6 73.4 79% 85 0 0.0
06 07:00 E 10 0.00 A Few Clouds FEW018 78.8 73.4 84% 82 0 0.0
05 19:00 E 12 0.00 A Few Clouds FEW019 78.8 73.4 84% 82 0 0.0
05 18:00 E 12 0.00 A Few Clouds FEW020 82.4 73.4 74% 88 0 0.0
05 17:00 SE 13 0.00 A Few Clouds FEW020 82.4 73.4 74% 88 0 0.0
05 16:00 SE 15 0.00 Partly Cloudy SCT019 84.2 73.4 70% 91 0 0.0
05 15:00 SE 15 0.00 Partly Cloudy SCT018 84.2 73.4 70% 91 0 0.0
05 14:00 E 18 0.00 Partly Cloudy SCT018 86 73.4 66% 93 0 0.0
05 13:00 SE 17 0.00 Showers in Vicinity SCT017TCU 84.2 73.4 70% 91 0 0.0
05 12:00 SE 10 0.00 Showers in Vicinity SCT017 SCT034 78.8 73.4 84% 82 0 0.0
05 11:00 SE 14 0.00 Showers in Vicinity SCT015 BKN034 80.6 73.4 79% 85 0 0.0
05 10:00 E 13 0.00 Light Showers Rain SCT015 BKN034 75.2 69.8 83% 75 0 0.0
05 09:00 E 16 0.00 Mostly Cloudy FEW016 BKN034 78.8 73.4 84% 82 0 0.0
05 08:00 E 15 0.00 Partly Cloudy SCT017 82.4 73.4 74% 88 0 0.0
05 07:00 E 12 0.00 A Few Clouds FEW019 80.6 73.4 79% 85 0 0.0
04 19:00 E 9 0.00 Light Showers Rain SCT015 78.8 73.4 84% 82 0 0.0
04 18:00 E 12 0.00 Showers in Vicinity BKN016TCU 80.6 75.2 84% 86 0 0.0
Date Time (ast) Wind (mph) Vis. (mi.) Weather Sky Cond. Air Dwpt Max. Min. Relative Humidity Wind Chill (°F) Heat Index (°F) altimeter (in) sea level (mb) 1 hr 3 hr 6 hr
6 hour
Temperature (ºF) Pressure Precipitation (in)